createdAt,value
2023-01-17T00:02:43.290Z,14.00
2023-01-17T00:11:06.705Z,43.40
2023-01-17T00:19:48.655Z,15.80
2023-01-17T00:28:12.059Z,14.80
2023-01-17T00:36:35.385Z,14.00
2023-01-17T00:45:17.340Z,13.30
2023-01-17T00:53:59.630Z,14.50
2023-01-17T01:02:42.459Z,14.50
2023-01-17T01:11:27.167Z,13.70
2023-01-17T01:20:09.076Z,13.90
2023-01-17T01:28:51.212Z,12.50
2023-01-17T01:37:14.470Z,13.00
2023-01-17T01:45:38.604Z,14.50
2023-01-17T01:54:21.264Z,12.00
2023-01-17T02:02:48.935Z,10.70
2023-01-17T02:11:12.399Z,11.10
2023-01-17T02:19:35.720Z,10.50
2023-01-17T02:28:12.762Z,9.20
2023-01-17T02:36:46.331Z,29.00
2023-01-17T02:45:16.178Z,10.30
2023-01-17T02:53:54.712Z,8.40
2023-01-17T03:02:18.537Z,9.80
2023-01-17T03:10:43.133Z,8.30
2023-01-17T03:19:06.395Z,6.90
2023-01-17T03:27:29.806Z,7.80
2023-01-17T03:35:54.799Z,7.30
2023-01-17T03:44:18.085Z,11.20
2023-01-17T03:52:41.475Z,6.90
2023-01-17T04:01:05.337Z,11.40
2023-01-17T04:09:28.644Z,7.20
2023-01-17T04:17:52.042Z,6.90
2023-01-17T04:26:15.211Z,5.90
2023-01-17T04:34:38.516Z,6.70
2023-01-17T04:43:01.763Z,5.60
2023-01-17T04:51:25.193Z,7.10
2023-01-17T04:59:48.498Z,9.20
2023-01-17T05:08:11.955Z,6.90
2023-01-17T05:16:35.489Z,6.40
2023-01-17T05:24:58.783Z,6.60
2023-01-17T05:33:22.061Z,14.00
2023-01-17T05:41:45.607Z,7.50
2023-01-17T05:50:10.152Z,7.40
2023-01-17T05:58:33.517Z,7.40
2023-01-17T06:06:56.753Z,10.10
2023-01-17T06:15:20.050Z,8.00
2023-01-17T06:23:43.369Z,8.60
2023-01-17T06:32:06.663Z,7.40
2023-01-17T06:40:30.644Z,9.00
2023-01-17T06:48:53.995Z,15.50
2023-01-17T06:57:17.214Z,8.20
2023-01-17T07:05:41.766Z,7.20
2023-01-17T07:14:05.771Z,7.60
2023-01-17T07:22:29.138Z,7.90
2023-01-17T07:30:53.039Z,5.80
2023-01-17T07:39:16.906Z,7.20
2023-01-17T07:47:41.235Z,22.20
2023-01-17T07:56:07.671Z,7.90
2023-01-17T08:04:35.516Z,6.60
2023-01-17T08:12:59.214Z,5.80
2023-01-17T08:21:23.071Z,6.20
2023-01-17T08:29:48.771Z,9.60
2023-01-17T08:38:12.001Z,5.80
2023-01-17T08:46:38.774Z,6.10
2023-01-17T08:55:02.315Z,5.70
2023-01-17T09:03:25.564Z,7.40
2023-01-17T09:11:48.839Z,6.30
2023-01-17T09:20:12.435Z,8.70
2023-01-17T09:28:41.207Z,6.50
2023-01-17T09:37:05.213Z,7.10
2023-01-17T09:45:34.077Z,6.10
2023-01-17T09:53:57.554Z,6.90
2023-01-17T10:03:15.960Z,7.00
2023-01-17T10:12:01.835Z,9.00
2023-01-17T10:20:55.822Z,12.00
2023-01-17T10:29:21.288Z,7.50
2023-01-17T10:37:46.989Z,7.80
2023-01-17T10:46:36.271Z,7.60
2023-01-17T10:55:22.439Z,7.80
2023-01-17T11:03:51.382Z,12.70
2023-01-17T11:12:35.634Z,8.50
2023-01-17T11:21:12.409Z,6.80
2023-01-17T11:29:39.300Z,6.90
2023-01-17T11:38:02.609Z,7.10
2023-01-17T11:46:28.436Z,8.00
2023-01-17T11:54:54.700Z,6.80
2023-01-17T12:03:45.038Z,40.90
2023-01-17T12:12:35.699Z,9.20
2023-01-17T12:21:14.642Z,9.10
2023-01-17T12:30:07.691Z,10.20
2023-01-17T12:38:38.992Z,9.70
2023-01-17T12:47:05.836Z,13.00
2023-01-17T12:55:58.492Z,8.80
2023-01-17T13:04:57.638Z,17.20
2023-01-17T13:13:27.290Z,18.10
2023-01-17T13:21:51.178Z,376.60
2023-01-17T13:30:22.771Z,244.90
2023-01-17T13:39:06.448Z,66.70
2023-01-17T13:47:38.924Z,29.90
2023-01-17T13:56:31.758Z,23.90
2023-01-17T14:05:24.177Z,28.60
2023-01-17T14:13:50.014Z,29.90
2023-01-17T14:22:20.359Z,13.80
2023-01-17T14:30:44.848Z,35.70
2023-01-17T14:39:22.656Z,28.30
2023-01-17T14:47:48.893Z,20.00
2023-01-17T14:56:17.634Z,32.70
2023-01-17T15:04:42.752Z,19.70
2023-01-17T15:13:10.342Z,15.00
2023-01-17T15:21:40.875Z,356.80
2023-01-17T15:30:07.049Z,636.90
2023-01-17T15:38:38.538Z,577.20
2023-01-17T15:47:03.160Z,219.80
2023-01-17T15:55:38.189Z,85.90
2023-01-17T16:04:01.508Z,52.60
2023-01-17T16:12:24.695Z,101.90
2023-01-17T16:20:53.409Z,38.70
2023-01-17T16:29:16.917Z,22.00
2023-01-17T16:37:40.235Z,18.90
2023-01-17T16:46:03.703Z,20.80
2023-01-17T16:54:27.390Z,40.00
2023-01-17T17:02:52.117Z,15.90
2023-01-17T17:11:22.913Z,16.90
2023-01-17T17:19:47.764Z,31.20
2023-01-17T17:28:11.835Z,28.90
2023-01-17T17:36:36.419Z,18.10
2023-01-17T17:44:59.629Z,24.50
2023-01-17T17:53:22.989Z,17.70
2023-01-17T18:01:47.692Z,15.90
2023-01-17T18:10:11.403Z,17.40
2023-01-17T18:18:36.933Z,20.50
2023-01-17T18:27:00.189Z,24.20
2023-01-17T18:35:23.581Z,27.10
2023-01-17T18:43:48.209Z,25.20
2023-01-17T18:52:12.333Z,31.70
2023-01-17T19:00:35.804Z,31.50
2023-01-17T19:08:59.922Z,26.50
2023-01-17T19:17:23.250Z,24.00
2023-01-17T19:25:46.743Z,22.90
2023-01-17T19:34:14.701Z,62.20
2023-01-17T19:42:38.479Z,412.50
2023-01-17T19:51:10.738Z,85.60
2023-01-17T19:59:37.978Z,71.00
2023-01-17T20:08:02.726Z,40.30
2023-01-17T20:16:29.094Z,57.90
2023-01-17T20:24:52.602Z,52.00
2023-01-17T20:33:19.128Z,23.50
2023-01-17T20:41:49.819Z,23.60
2023-01-17T20:50:13.226Z,25.10
2023-01-17T20:58:36.557Z,26.00
2023-01-17T21:06:59.921Z,50.00
2023-01-17T21:15:23.174Z,21.70
2023-01-17T21:23:46.473Z,24.60
2023-01-17T21:32:09.872Z,22.40
2023-01-17T21:40:34.260Z,24.10
2023-01-17T21:48:58.034Z,25.80
2023-01-17T21:57:42.245Z,24.00
2023-01-17T22:06:06.790Z,26.40
2023-01-17T22:14:30.564Z,22.90
2023-01-17T22:22:54.122Z,17.40
2023-01-17T22:31:23.699Z,22.70
2023-01-17T22:39:47.237Z,21.70
2023-01-17T22:48:10.981Z,15.60
2023-01-17T22:56:34.308Z,21.50
2023-01-17T23:04:57.727Z,20.30
2023-01-17T23:13:21.797Z,27.40
2023-01-17T23:22:03.691Z,19.40
2023-01-17T23:30:35.957Z,19.30
2023-01-17T23:38:59.754Z,16.80
2023-01-17T23:47:23.708Z,24.20
2023-01-17T23:55:46.994Z,23.10
